createdAt,value
2019-03-21T00:01:50.851Z,6.30
2019-03-21T00:04:20.404Z,6.30
2019-03-21T00:06:49.780Z,6.30
2019-03-21T00:09:19.297Z,6.40
2019-03-21T00:11:59.702Z,6.40
2019-03-21T00:15:17.736Z,6.40
2019-03-21T00:17:50.910Z,6.40
2019-03-21T00:20:20.410Z,6.30
2019-03-21T00:22:49.951Z,6.30
2019-03-21T00:25:21.370Z,6.30
2019-03-21T00:27:50.818Z,6.20
2019-03-21T00:30:21.503Z,6.20
2019-03-21T00:32:51.290Z,6.10
2019-03-21T00:35:20.615Z,6.10
2019-03-21T00:37:50.159Z,6.10
2019-03-21T00:40:23.040Z,6.10
2019-03-21T00:42:52.589Z,6.10
2019-03-21T00:45:22.173Z,6.10
2019-03-21T00:47:51.624Z,6.00
2019-03-21T00:50:22.179Z,5.90
2019-03-21T00:52:52.922Z,5.90
2019-03-21T00:55:22.477Z,5.90
2019-03-21T00:57:51.834Z,5.80
2019-03-21T01:00:24.671Z,5.80
2019-03-21T01:02:54.025Z,5.70
2019-03-21T01:05:23.746Z,5.70
2019-03-21T01:07:53.066Z,5.50
2019-03-21T01:10:23.428Z,5.50
2019-03-21T01:12:52.764Z,5.50
2019-03-21T01:15:22.103Z,5.50
2019-03-21T01:17:51.407Z,5.50
2019-03-21T01:20:20.797Z,5.50
2019-03-21T01:22:50.224Z,5.50
2019-03-21T01:25:22.932Z,5.40
2019-03-21T01:27:52.752Z,5.40
2019-03-21T01:30:22.240Z,5.40
2019-03-21T01:32:54.511Z,5.40
2019-03-21T01:35:24.187Z,5.30
2019-03-21T01:37:53.511Z,5.30
2019-03-21T01:40:24.143Z,5.30
2019-03-21T01:42:53.528Z,5.30
2019-03-21T01:45:23.719Z,5.30
2019-03-21T01:47:53.802Z,5.30
2019-03-21T01:50:23.670Z,5.30
2019-03-21T01:52:52.970Z,5.30
2019-03-21T01:55:22.494Z,5.30
2019-03-21T01:57:52.069Z,5.20
2019-03-21T02:00:24.515Z,5.20
2019-03-21T02:02:55.443Z,5.20
2019-03-21T02:05:25.044Z,5.10
2019-03-21T02:07:54.431Z,5.10
2019-03-21T02:10:24.132Z,5.10
2019-03-21T02:12:53.722Z,5.10
2019-03-21T02:15:24.917Z,5.00
2019-03-21T02:17:54.292Z,5.00
2019-03-21T02:20:23.699Z,4.80
2019-03-21T02:22:53.000Z,4.90
2019-03-21T02:25:24.571Z,4.90
2019-03-21T02:27:54.160Z,4.90
2019-03-21T02:30:25.603Z,4.90
2019-03-21T02:33:23.967Z,4.90
2019-03-21T02:35:53.583Z,4.90
2019-03-21T02:38:22.953Z,4.80
2019-03-21T02:40:52.641Z,4.80
2019-03-21T02:43:21.958Z,4.70
2019-03-21T02:45:51.256Z,4.70
2019-03-21T02:48:20.660Z,4.70
2019-03-21T02:50:49.953Z,4.70
2019-03-21T02:53:19.252Z,4.70
2019-03-21T02:55:48.655Z,4.60
2019-03-21T02:58:17.960Z,4.60
2019-03-21T03:00:47.687Z,4.60
2019-03-21T03:03:17.014Z,4.60
2019-03-21T03:05:46.360Z,4.50
2019-03-21T03:08:15.699Z,4.40
2019-03-21T03:10:47.841Z,4.30
2019-03-21T03:13:17.720Z,4.30
2019-03-21T03:15:47.438Z,4.30
2019-03-21T03:18:16.918Z,4.30
2019-03-21T03:20:46.406Z,4.30
2019-03-21T03:23:15.984Z,4.30
2019-03-21T03:25:45.282Z,4.30
2019-03-21T03:28:17.297Z,4.20
2019-03-21T03:30:46.686Z,4.30
2019-03-21T03:33:15.984Z,4.30
2019-03-21T03:35:45.420Z,4.40
2019-03-21T03:38:14.803Z,4.40
2019-03-21T03:40:46.760Z,4.30
2019-03-21T03:43:16.453Z,4.20
2019-03-21T03:45:45.860Z,4.20
2019-03-21T03:48:15.162Z,4.20
2019-03-21T03:50:44.466Z,4.30
2019-03-21T03:53:13.774Z,4.20
2019-03-21T03:55:43.397Z,4.20
2019-03-21T03:58:14.038Z,4.20
2019-03-21T04:00:43.389Z,4.20
2019-03-21T04:03:12.842Z,4.10
2019-03-21T04:05:42.336Z,4.00
2019-03-21T04:08:11.728Z,3.90
2019-03-21T04:10:42.792Z,3.80
2019-03-21T04:13:12.409Z,3.90
2019-03-21T04:15:52.533Z,3.90
2019-03-21T04:18:13.135Z,3.90
2019-03-21T04:20:43.687Z,3.90
2019-03-21T04:23:13.186Z,3.90
2019-03-21T04:25:48.328Z,3.80
2019-03-21T04:28:17.712Z,3.90
2019-03-21T04:30:47.953Z,3.90
2019-03-21T04:33:17.267Z,3.80
2019-03-21T04:35:46.939Z,3.80
2019-03-21T04:38:16.343Z,3.70
2019-03-21T04:40:45.760Z,3.70
2019-03-21T04:43:15.087Z,3.70
2019-03-21T04:45:44.422Z,3.70
2019-03-21T04:48:13.995Z,3.80
2019-03-21T04:50:43.364Z,3.80
2019-03-21T04:53:12.692Z,3.90
2019-03-21T04:55:42.103Z,3.80
2019-03-21T04:58:11.666Z,3.80
2019-03-21T05:00:41.064Z,3.80
2019-03-21T05:03:10.672Z,3.70
2019-03-21T05:05:40.064Z,3.70
2019-03-21T05:08:09.633Z,3.60
2019-03-21T05:10:38.935Z,3.50
2019-03-21T05:13:08.239Z,3.40
2019-03-21T05:15:38.884Z,3.50
2019-03-21T05:18:11.174Z,3.40
2019-03-21T05:20:40.655Z,3.40
2019-03-21T05:23:09.956Z,3.40
2019-03-21T05:25:39.243Z,3.40
2019-03-21T05:28:08.548Z,3.40
2019-03-21T05:30:41.667Z,3.30
2019-03-21T05:33:10.999Z,3.30
2019-03-21T05:35:40.312Z,3.30
2019-03-21T05:38:09.855Z,3.40
2019-03-21T05:40:39.239Z,3.40
2019-03-21T05:43:11.930Z,3.30
2019-03-21T05:45:41.230Z,3.30
2019-03-21T05:48:10.626Z,3.40
2019-03-21T05:50:39.931Z,3.40
2019-03-21T05:53:09.321Z,3.50
2019-03-21T05:55:39.153Z,3.50
2019-03-21T05:58:08.599Z,3.60
2019-03-21T06:00:40.510Z,3.60
2019-03-21T06:03:13.190Z,3.60
2019-03-21T06:05:43.954Z,3.60
2019-03-21T06:08:16.741Z,3.60
2019-03-21T06:10:47.327Z,3.70
2019-03-21T06:13:16.671Z,3.80
2019-03-21T06:15:46.100Z,3.90
2019-03-21T06:18:48.041Z,3.80
2019-03-21T06:21:36.951Z,3.80
2019-03-21T06:24:45.258Z,3.90
2019-03-21T06:27:34.707Z,3.90
2019-03-21T06:30:04.660Z,3.90
2019-03-21T06:32:34.071Z,4.00
2019-03-21T06:35:03.565Z,4.00
2019-03-21T06:37:32.966Z,4.00
2019-03-21T06:40:02.687Z,4.10
2019-03-21T06:42:32.011Z,4.10
2019-03-21T06:45:01.416Z,4.10
2019-03-21T06:47:30.943Z,4.20
2019-03-21T06:50:00.316Z,4.20
2019-03-21T06:52:29.615Z,4.30
2019-03-21T06:54:59.967Z,4.40
2019-03-21T06:57:29.440Z,4.40
2019-03-21T06:59:58.779Z,4.40
2019-03-21T07:02:28.087Z,4.50
2019-03-21T07:04:57.390Z,4.50
2019-03-21T07:07:26.702Z,4.60
2019-03-21T07:09:56.131Z,4.70
2019-03-21T07:12:25.919Z,4.80
2019-03-21T07:14:55.259Z,4.80
2019-03-21T07:17:24.924Z,4.90
2019-03-21T07:19:54.268Z,4.90
2019-03-21T07:22:24.050Z,5.00
2019-03-21T07:24:53.398Z,5.10
2019-03-21T07:27:22.743Z,5.10
2019-03-21T07:29:52.141Z,5.20
2019-03-21T07:32:32.912Z,5.30
2019-03-21T07:34:52.843Z,5.30
2019-03-21T07:37:22.141Z,5.40
2019-03-21T07:39:51.425Z,5.40
2019-03-21T07:42:20.849Z,5.50
2019-03-21T07:44:50.376Z,5.60
2019-03-21T07:47:20.243Z,5.60
2019-03-21T07:49:49.552Z,5.70
2019-03-21T07:52:19.176Z,5.70
2019-03-21T07:54:48.627Z,5.80
2019-03-21T07:57:18.267Z,5.90
2019-03-21T07:59:47.651Z,6.00
2019-03-21T08:02:16.963Z,6.10
2019-03-21T08:04:46.397Z,6.20
2019-03-21T08:07:15.803Z,6.20
2019-03-21T08:09:45.211Z,6.30
2019-03-21T08:12:14.507Z,6.40
2019-03-21T08:14:44.092Z,6.40
2019-03-21T08:17:13.530Z,6.60
2019-03-21T08:19:42.853Z,6.60
2019-03-21T08:22:12.243Z,6.70
2019-03-21T08:24:41.910Z,6.70
2019-03-21T08:27:11.278Z,6.80
2019-03-21T08:29:40.843Z,6.90
2019-03-21T08:32:10.462Z,7.00
2019-03-21T08:34:40.135Z,7.10
2019-03-21T08:37:09.744Z,7.10
2019-03-21T08:39:39.429Z,7.20
2019-03-21T08:42:08.795Z,7.30
2019-03-21T08:44:38.306Z,7.50
2019-03-21T08:47:07.681Z,7.60
2019-03-21T08:49:36.987Z,7.70
2019-03-21T08:52:06.295Z,7.70
2019-03-21T08:54:35.567Z,7.90
2019-03-21T08:57:05.235Z,7.90
2019-03-21T08:59:34.708Z,7.90
2019-03-21T09:02:04.107Z,8.00
2019-03-21T09:04:33.479Z,8.10
2019-03-21T09:07:03.121Z,8.20
2019-03-21T09:09:32.458Z,8.20
2019-03-21T09:12:01.751Z,8.40
2019-03-21T09:14:31.380Z,8.50
2019-03-21T09:17:00.660Z,8.60
2019-03-21T09:19:30.005Z,8.70
2019-03-21T09:21:59.436Z,8.70
2019-03-21T09:24:29.084Z,8.80
2019-03-21T09:26:58.730Z,8.80
2019-03-21T09:29:28.109Z,8.90
2019-03-21T09:31:57.660Z,9.00
2019-03-21T09:34:26.959Z,9.10
2019-03-21T09:36:56.575Z,9.20
2019-03-21T09:39:26.012Z,9.20
2019-03-21T09:41:55.387Z,9.30
2019-03-21T09:44:28.270Z,9.40
2019-03-21T09:46:57.718Z,9.50
2019-03-21T09:49:27.044Z,9.50
2019-03-21T09:51:56.390Z,9.60
2019-03-21T09:54:25.928Z,9.70
2019-03-21T09:56:55.559Z,9.80
2019-03-21T09:59:24.858Z,9.90
2019-03-21T10:01:54.591Z,9.90
2019-03-21T10:04:24.344Z,10.00
2019-03-21T10:06:53.645Z,10.10
2019-03-21T10:09:22.948Z,10.10
2019-03-21T10:11:52.267Z,10.20
2019-03-21T10:14:21.934Z,10.30
2019-03-21T10:16:51.331Z,10.50
2019-03-21T10:19:20.627Z,10.50
2019-03-21T10:21:50.436Z,10.60
2019-03-21T10:24:19.764Z,10.70
2019-03-21T10:26:49.276Z,10.80
2019-03-21T10:29:18.611Z,10.90
2019-03-21T10:31:47.927Z,11.00
2019-03-21T10:34:17.479Z,11.00
2019-03-21T10:36:47.160Z,11.10
2019-03-21T10:39:16.767Z,11.20
2019-03-21T10:41:46.376Z,11.30
2019-03-21T10:44:15.923Z,11.40
2019-03-21T10:46:45.207Z,11.40
2019-03-21T10:49:14.586Z,11.40
2019-03-21T10:51:54.488Z,11.50
2019-03-21T10:54:15.042Z,11.50
2019-03-21T10:56:44.623Z,11.60
2019-03-21T10:59:14.106Z,11.60
2019-03-21T11:01:43.523Z,11.60
2019-03-21T11:04:12.895Z,11.70
2019-03-21T11:06:42.304Z,11.70
2019-03-21T11:09:11.867Z,11.80
2019-03-21T11:11:41.263Z,11.90
2019-03-21T11:14:10.600Z,12.00
2019-03-21T11:16:39.914Z,12.00
2019-03-21T11:19:09.290Z,12.10
2019-03-21T11:21:38.590Z,12.10
2019-03-21T11:24:07.976Z,12.20
2019-03-21T11:26:37.513Z,12.20
2019-03-21T11:29:06.798Z,12.30
2019-03-21T11:31:36.163Z,12.30
2019-03-21T11:34:05.644Z,12.30
2019-03-21T11:36:38.571Z,12.30
2019-03-21T11:39:08.020Z,12.40
2019-03-21T11:41:37.647Z,12.40
2019-03-21T11:44:06.981Z,12.50
2019-03-21T11:46:36.303Z,12.50
2019-03-21T11:49:05.637Z,12.60
2019-03-21T11:51:35.040Z,12.60
2019-03-21T11:54:04.453Z,12.70
2019-03-21T11:56:34.004Z,12.70
2019-03-21T11:59:03.406Z,12.70
2019-03-21T12:01:32.847Z,12.80
2019-03-21T12:04:02.319Z,12.70
2019-03-21T12:06:31.863Z,12.70
2019-03-21T12:09:01.164Z,12.80
2019-03-21T12:11:30.736Z,12.80
2019-03-21T12:14:00.294Z,12.80
2019-03-21T12:16:29.687Z,12.90
2019-03-21T12:18:59.261Z,13.00
2019-03-21T12:21:28.792Z,13.00
2019-03-21T12:23:58.405Z,13.20
2019-03-21T12:26:27.983Z,13.20
2019-03-21T12:28:57.345Z,13.20
2019-03-21T12:31:26.792Z,13.20
2019-03-21T12:33:56.167Z,13.30
2019-03-21T12:36:25.718Z,13.30
2019-03-21T12:38:55.086Z,13.40
2019-03-21T12:41:24.397Z,13.40
2019-03-21T12:43:53.699Z,13.50
2019-03-21T12:46:22.999Z,13.50
2019-03-21T12:48:52.315Z,13.60
2019-03-21T12:51:21.644Z,13.60
2019-03-21T12:53:51.196Z,13.60
2019-03-21T12:56:20.862Z,13.70
2019-03-21T12:58:50.464Z,13.80
2019-03-21T13:01:19.820Z,13.80
2019-03-21T13:03:49.114Z,13.80
2019-03-21T13:06:18.538Z,13.90
2019-03-21T13:08:47.840Z,13.90
2019-03-21T13:11:17.370Z,14.10
2019-03-21T13:13:46.666Z,14.10
2019-03-21T13:16:16.406Z,14.20
2019-03-21T13:18:45.711Z,14.30
2019-03-21T13:21:15.347Z,14.20
2019-03-21T13:23:44.739Z,14.20
2019-03-21T13:26:14.067Z,14.20
2019-03-21T13:28:43.455Z,14.20
2019-03-21T13:31:12.815Z,14.20
2019-03-21T13:33:42.088Z,14.30
2019-03-21T13:36:11.500Z,14.30
2019-03-21T13:38:40.966Z,14.40
2019-03-21T13:41:10.281Z,14.40
2019-03-21T13:43:39.878Z,14.50
2019-03-21T13:46:09.235Z,14.50
2019-03-21T13:48:38.639Z,14.50
2019-03-21T13:51:07.983Z,14.50
2019-03-21T13:53:37.543Z,14.50
2019-03-21T13:56:07.432Z,14.50
2019-03-21T13:58:37.021Z,14.50
2019-03-21T14:01:06.367Z,14.60
2019-03-21T14:03:35.918Z,14.60
2019-03-21T14:06:05.649Z,14.70
2019-03-21T14:08:34.971Z,14.70
2019-03-21T14:11:04.338Z,14.80
2019-03-21T14:13:33.859Z,14.70
2019-03-21T14:16:03.159Z,14.80
2019-03-21T14:18:32.707Z,14.80
2019-03-21T14:21:02.011Z,14.80
2019-03-21T14:23:42.488Z,14.90
2019-03-21T14:26:02.434Z,14.90
2019-03-21T14:28:31.740Z,15.00
2019-03-21T14:31:01.618Z,15.10
2019-03-21T14:33:31.146Z,15.20
2019-03-21T14:36:00.861Z,15.30
2019-03-21T14:38:30.407Z,15.50
2019-03-21T14:40:59.856Z,15.60
2019-03-21T14:43:29.453Z,15.70
2019-03-21T14:45:58.974Z,16.90
2019-03-21T14:48:28.367Z,16.20
2019-03-21T14:50:57.825Z,16.40
2019-03-21T14:53:29.061Z,16.70
2019-03-21T14:55:58.751Z,17.10
2019-03-21T14:58:28.124Z,17.20
2019-03-21T15:00:57.531Z,17.60
2019-03-21T15:03:26.892Z,17.70
2019-03-21T15:05:56.247Z,17.60
2019-03-21T15:08:25.924Z,17.70
2019-03-21T15:10:55.827Z,17.60
2019-03-21T15:13:25.268Z,17.60
2019-03-21T15:15:54.731Z,17.40
2019-03-21T15:18:24.055Z,17.60
2019-03-21T15:20:53.555Z,17.80
2019-03-21T15:23:22.911Z,17.70
2019-03-21T15:25:52.489Z,17.70
2019-03-21T15:28:22.238Z,17.80
2019-03-21T15:30:51.722Z,17.80
2019-03-21T15:33:21.020Z,18.00
2019-03-21T15:35:50.501Z,17.90
2019-03-21T15:38:19.880Z,18.00
2019-03-21T15:40:49.244Z,18.20
2019-03-21T15:43:18.775Z,18.00
2019-03-21T15:45:48.649Z,17.80
2019-03-21T15:48:20.791Z,17.60
2019-03-21T15:50:49.225Z,17.60
2019-03-21T15:53:18.540Z,17.50
2019-03-21T15:55:48.113Z,17.50
2019-03-21T15:58:17.458Z,17.50
2019-03-21T16:00:47.052Z,17.70
2019-03-21T16:03:16.413Z,17.80
2019-03-21T16:05:45.947Z,18.00
2019-03-21T16:08:15.804Z,18.10
2019-03-21T16:10:45.458Z,18.10
2019-03-21T16:13:14.851Z,18.00
2019-03-21T16:15:44.554Z,18.00
2019-03-21T16:18:13.834Z,18.10
2019-03-21T16:20:43.371Z,18.10
2019-03-21T16:23:12.731Z,18.00
2019-03-21T16:25:42.867Z,18.00
2019-03-21T16:28:12.419Z,18.10
2019-03-21T16:30:42.236Z,18.00
2019-03-21T16:33:11.598Z,18.00
2019-03-21T16:35:40.899Z,18.00
2019-03-21T16:38:10.210Z,17.90
2019-03-21T16:40:39.840Z,17.80
2019-03-21T16:43:09.619Z,17.50
2019-03-21T16:45:39.151Z,17.60
2019-03-21T16:48:09.373Z,17.50
2019-03-21T16:50:39.162Z,17.50
2019-03-21T16:53:08.467Z,17.50
2019-03-21T16:55:37.775Z,17.50
2019-03-21T16:58:07.164Z,17.40
2019-03-21T17:00:36.552Z,17.30
2019-03-21T17:03:06.408Z,17.20
2019-03-21T17:05:35.798Z,17.10
2019-03-21T17:08:11.042Z,16.90
2019-03-21T17:10:36.446Z,16.80
2019-03-21T17:13:06.478Z,16.70
2019-03-21T17:15:36.714Z,16.60
2019-03-21T17:18:06.037Z,16.60
2019-03-21T17:20:35.485Z,16.50
2019-03-21T17:23:04.945Z,16.50
2019-03-21T17:25:34.402Z,16.50
2019-03-21T17:28:03.842Z,16.40
2019-03-21T17:30:33.598Z,16.30
2019-03-21T17:33:02.982Z,15.00
2019-03-21T17:35:32.656Z,16.10
2019-03-21T17:38:02.093Z,15.90
2019-03-21T17:40:31.424Z,15.70
2019-03-21T17:43:00.795Z,15.60
2019-03-21T17:45:30.547Z,15.40
2019-03-21T17:48:00.222Z,15.30
2019-03-21T17:50:29.846Z,15.20
2019-03-21T17:52:59.246Z,15.10
2019-03-21T17:55:28.543Z,15.00
2019-03-21T17:57:58.286Z,14.90
2019-03-21T18:00:28.499Z,14.90
2019-03-21T18:02:57.991Z,14.80
2019-03-21T18:05:27.384Z,14.70
2019-03-21T18:07:56.968Z,14.60
2019-03-21T18:10:31.097Z,14.50
2019-03-21T18:13:00.956Z,14.50
2019-03-21T18:15:30.826Z,14.40
2019-03-21T18:18:00.578Z,14.40
2019-03-21T18:20:30.032Z,14.40
2019-03-21T18:22:59.342Z,14.30
2019-03-21T18:25:28.755Z,14.30
2019-03-21T18:27:58.946Z,14.30
2019-03-21T18:30:28.324Z,14.30
2019-03-21T18:32:57.651Z,14.20
2019-03-21T18:35:27.139Z,14.20
2019-03-21T18:37:56.605Z,14.20
2019-03-21T18:40:26.286Z,14.10
2019-03-21T18:42:55.608Z,14.10
2019-03-21T18:45:25.356Z,14.10
2019-03-21T18:47:54.676Z,14.00
2019-03-21T18:50:24.404Z,14.00
2019-03-21T18:52:53.963Z,14.00
2019-03-21T18:55:23.657Z,13.90
2019-03-21T18:57:52.975Z,13.80
2019-03-21T19:00:22.908Z,13.80
2019-03-21T19:02:52.422Z,13.80
2019-03-21T19:05:21.803Z,13.70
2019-03-21T19:07:51.199Z,13.70
2019-03-21T19:10:21.073Z,13.70
2019-03-21T19:12:50.419Z,13.60
2019-03-21T19:15:19.891Z,13.60
2019-03-21T19:17:49.253Z,13.60
2019-03-21T19:20:18.794Z,13.50
2019-03-21T19:22:48.557Z,13.50
2019-03-21T19:25:19.838Z,13.50
2019-03-21T19:27:49.643Z,13.50
2019-03-21T19:30:19.395Z,13.50
2019-03-21T19:32:48.942Z,13.40
2019-03-21T19:35:18.399Z,13.40
2019-03-21T19:37:49.513Z,13.30
2019-03-21T19:40:19.852Z,13.30
2019-03-21T19:42:49.304Z,13.30
2019-03-21T19:45:19.681Z,13.30
2019-03-21T19:47:49.084Z,13.30
2019-03-21T19:50:18.778Z,13.30
2019-03-21T19:52:48.245Z,13.20
2019-03-21T19:55:25.890Z,13.20
2019-03-21T19:57:49.235Z,13.10
2019-03-21T20:00:19.430Z,13.10
2019-03-21T20:02:48.931Z,13.10
2019-03-21T20:05:19.052Z,13.00
2019-03-21T20:07:48.523Z,13.00
2019-03-21T20:10:19.278Z,12.90
2019-03-21T20:12:48.679Z,12.90
2019-03-21T20:15:18.428Z,12.90
2019-03-21T20:17:47.905Z,12.80
2019-03-21T20:20:17.599Z,12.70
2019-03-21T20:22:46.952Z,12.60
2019-03-21T20:25:16.415Z,12.50
2019-03-21T20:27:46.006Z,12.40
2019-03-21T20:30:17.450Z,12.40
2019-03-21T20:32:47.246Z,12.40
2019-03-21T20:35:16.722Z,12.40
2019-03-21T20:37:46.303Z,12.40
2019-03-21T20:40:16.151Z,12.30
2019-03-21T20:42:45.633Z,12.30
2019-03-21T20:45:15.425Z,12.30
2019-03-21T20:47:44.880Z,12.20
2019-03-21T20:50:14.451Z,12.10
2019-03-21T20:52:43.785Z,12.10
2019-03-21T20:55:13.790Z,12.10
2019-03-21T20:57:43.258Z,12.00
2019-03-21T21:00:15.319Z,12.00
2019-03-21T21:02:45.034Z,11.90
2019-03-21T21:05:14.812Z,11.80
2019-03-21T21:07:44.366Z,11.70
2019-03-21T21:10:14.463Z,11.70
2019-03-21T21:12:43.953Z,11.70
2019-03-21T21:15:14.227Z,11.70
2019-03-21T21:17:43.763Z,11.70
2019-03-21T21:20:13.783Z,11.60
2019-03-21T21:22:43.439Z,11.60
2019-03-21T21:25:13.003Z,11.50
2019-03-21T21:27:49.563Z,11.50
2019-03-21T21:30:14.978Z,11.50
2019-03-21T21:32:44.615Z,11.40
2019-03-21T21:35:14.220Z,11.40
2019-03-21T21:37:44.247Z,11.30
2019-03-21T21:40:14.896Z,11.30
2019-03-21T21:42:44.732Z,11.20
2019-03-21T21:45:14.468Z,11.10
2019-03-21T21:47:45.430Z,11.10
2019-03-21T21:50:15.188Z,11.00
2019-03-21T21:52:44.687Z,10.90
2019-03-21T21:55:14.839Z,10.80
2019-03-21T21:57:44.333Z,10.80
2019-03-21T22:00:15.480Z,10.70
2019-03-21T22:02:45.194Z,10.70
2019-03-21T22:05:15.148Z,10.60
2019-03-21T22:07:44.714Z,10.50
2019-03-21T22:10:14.507Z,10.50
2019-03-21T22:12:43.880Z,10.50
2019-03-21T22:15:13.383Z,10.40
2019-03-21T22:17:42.722Z,10.40
2019-03-21T22:20:12.585Z,10.40
2019-03-21T22:22:41.979Z,10.30
2019-03-21T22:25:13.039Z,10.30
2019-03-21T22:27:42.788Z,10.20
2019-03-21T22:30:13.611Z,10.10
2019-03-21T22:32:43.187Z,10.10
2019-03-21T22:35:12.653Z,10.00
2019-03-21T22:37:42.388Z,9.90
2019-03-21T22:40:12.001Z,9.90
2019-03-21T22:42:41.597Z,9.80
2019-03-21T22:45:12.032Z,9.80
2019-03-21T22:47:41.545Z,9.80
2019-03-21T22:50:14.607Z,9.70
2019-03-21T22:52:43.653Z,9.60
2019-03-21T22:55:13.548Z,9.60
2019-03-21T22:57:43.021Z,9.60
2019-03-21T23:00:14.944Z,9.60
2019-03-21T23:02:44.628Z,9.50
2019-03-21T23:05:14.495Z,9.50
2019-03-21T23:07:43.810Z,9.40
2019-03-21T23:10:13.705Z,9.40
2019-03-21T23:12:43.586Z,9.30
2019-03-21T23:15:13.232Z,9.30
2019-03-21T23:17:42.623Z,9.30
2019-03-21T23:20:12.020Z,9.20
2019-03-21T23:22:41.644Z,9.20
2019-03-21T23:25:11.516Z,9.20
2019-03-21T23:27:40.950Z,9.10
2019-03-21T23:30:10.878Z,9.10
2019-03-21T23:32:40.239Z,9.00
2019-03-21T23:35:10.443Z,9.00
2019-03-21T23:37:39.802Z,9.00
2019-03-21T23:40:09.438Z,9.00
2019-03-21T23:42:38.802Z,8.90
2019-03-21T23:45:08.682Z,8.90
2019-03-21T23:47:38.266Z,8.90
2019-03-21T23:50:07.841Z,8.90
2019-03-21T23:52:37.398Z,8.90
2019-03-21T23:55:07.363Z,8.80
2019-03-21T23:57:36.758Z,8.80
